Latest Weather Observations for Gladstone Airport

IDQ60801

Issued at 1:35 pm EST Saturday 1 November 2014 (issued every 30 minutes, with the page automatically refreshed every 10 minutes)

About weather observations | Map of weather stations | Latest weather observations for QLD | Other Formats
Station Details ID: 039326 Name: GLADSTONE AIRPORT Lat: -23.87 Lon: 151.22 Height: 16.6 m
Data from the previous 72 hours. | See also: Recent months at Gladstone Airport
Date/Time
EST
Temp
°C
App
Temp
°C
Dew
Point
Rel
Hum
%
Delta-T
°C
Wind Press
QNH
hPa
Press
MSL
hPa
Rain
since 9 am
mm
Dir
 
Spd
km/h
Gust
km/h
Spd
kts
Gust
kts
01/01:30pm 27.5 24.7 17.4 54 6.3 NE 28 35 15 19 1013.6 1013.5 0.0
01/01:00pm 27.8 25.4 17.3 52 6.6 NE 26 35 14 19 1014.1 1014.0 0.0
01/12:30pm 28.3 26.3 17.5 52 6.8 NE 24 32 13 17 1014.7 1014.6 0.0
01/12:00pm 28.1 26.4 18.2 55 6.3 NE 24 32 13 17 1015.3 1015.3 0.0
01/11:30am 27.6 26.2 18.0 55 6.1 NE 22 32 12 17 1015.5 1015.5 0.0
01/11:00am 27.7 26.0 17.2 52 6.6 ENE 22 32 12 17 1016.0 1016.0 0.0
01/10:30am 26.7 25.8 16.9 55 6.1 NE 17 32 9 17 1016.3 1016.3 0.0
01/10:00am 26.2 25.6 16.7 56 5.9 NNE 15 22 8 12 1016.6 1016.6 0.0
01/09:30am 25.5 24.2 17.2 60 5.2 NE 20 24 11 13 1016.8 1016.8 0.0
01/09:00am 25.3 23.8 16.4 57 5.5 NNE 19 26 10 14 1016.9 1016.9 0.0
01/08:30am 26.1 24.5 16.4 55 6.0 NE 20 28 11 15 1017.0 1017.0 0.0
01/08:00am 25.5 24.6 16.9 59 5.3 N 17 22 9 12 1016.7 1016.7 0.0
01/07:30am 24.1 24.1 18.1 69 3.8 NNE 15 19 8 10 1016.3 1016.3 0.0
01/07:00am 24.1 25.0 18.3 70 3.7 NNE 11 15 6 8 1016.0 1016.0 0.0
01/06:30am 23.4 24.0 17.8 71 3.5 NNE 11 17 6 9 1015.7 1015.7 0.0
01/06:00am 22.6 23.6 17.7 74 3.0 N 9 13 5 7 1015.6 1015.6 0.0
01/05:30am 22.4 23.4 17.8 75 2.9 N 9 13 5 7 1015.2 1015.2 0.0
01/05:00am 22.3 23.3 17.7 75 2.9 N 9 15 5 8 1014.9 1014.9 0.0
01/04:30am 22.7 23.0 17.8 74 3.0 NNE 13 19 7 10 1014.8 1014.8 0.0
01/04:00am 22.5 23.6 18.1 76 2.7 NNE 9 13 5 7 1014.4 1014.4 0.0
01/03:30am 22.4 23.5 18.0 76 2.7 N 9 13 5 7 1014.4 1014.4 0.0
01/03:00am 22.5 23.4 18.3 77 2.6 NNE 11 15 6 8 1014.6 1014.6 0.0
01/02:30am 22.4 22.9 18.4 78 2.5 N 13 17 7 9 1014.7 1014.7 0.0
01/02:00am 22.7 23.6 18.5 77 2.6 N 11 15 6 8 1014.8 1014.8 0.0
01/01:30am 23.0 23.8 19.0 78 2.5 N 13 17 7 9 1014.8 1014.8 0.0
01/01:00am 23.2 23.2 18.9 77 2.7 NNE 17 22 9 12 1014.8 1014.8 0.0
01/12:30am 23.3 24.1 19.0 77 2.7 N 13 17 7 9 1015.1 1015.1 0.0
01/12:00am 24.0 24.7 18.9 73 3.2 NNE 13 19 7 10 1015.6 1015.6 0.0
 
Date/Time
EST
Temp
°C
App
Temp
°C
Dew
Point
Rel
Hum
%
Delta-T
°C
Wind Press
QNH
hPa
Press
MSL
hPa
Rain
since 9 am
mm
Dir
 
Spd
km/h
Gust
km/h
Spd
kts
Gust
kts
31/11:30pm 23.9 25.6 19.4 76 2.9 NE 9 15 5 8 1015.8 1015.8 0.0
31/11:00pm 24.0 25.2 19.1 74 3.1 NE 11 15 6 8 1016.1 1016.1 0.0
31/10:30pm 23.9 25.4 19.0 74 3.1 ENE 9 13 5 7 1016.3 1016.3 0.0
31/10:00pm 23.9 25.1 19.0 74 3.1 NE 11 15 6 8 1016.5 1016.5 0.0
31/09:30pm 23.8 24.5 18.9 74 3.1 ENE 13 17 7 9 1016.3 1016.3 0.0
31/09:00pm 23.8 24.9 18.9 74 3.1 N 11 17 6 9 1016.1 1016.1 0.0
31/08:30pm 23.7 24.3 18.6 73 3.2 N 13 17 7 9 1016.1 1016.1 0.0
31/08:00pm 24.0 24.7 18.9 73 3.2 NE 13 17 7 9 1015.8 1015.8 0.0
31/07:30pm 24.0 24.6 18.6 72 3.4 NNE 13 19 7 10 1015.4 1015.4 0.0
31/07:00pm 24.1 23.9 18.5 71 3.5 NNE 17 20 9 11 1015.4 1015.4 0.0
31/06:30pm 24.2 24.2 18.2 69 3.8 NE 15 19 8 10 1015.0 1015.0 0.0
31/06:00pm 24.3 24.3 18.2 68 3.8 NE 15 20 8 11 1014.6 1014.6 0.0
31/05:30pm 24.5 24.1 18.0 67 4.1 NE 17 24 9 13 1014.6 1014.6 0.0
31/05:00pm 25.1 23.9 17.6 63 4.7 NNE 20 26 11 14 1014.4 1014.4 0.0
31/04:30pm 25.7 24.3 17.1 59 5.3 NE 20 26 11 14 1014.2 1014.2 0.0
31/04:00pm 26.1 25.1 18.0 61 5.1 ENE 20 26 11 14 1014.2 1014.2 0.0
31/03:30pm 26.2 25.3 18.1 61 5.1 NE 20 28 11 15 1014.2 1014.2 0.0
31/03:00pm 26.2 25.3 18.3 61 5.0 NE 20 28 11 15 1014.1 1014.1 0.0
31/02:30pm 26.5 24.2 16.7 55 6.1 NE 24 32 13 17 1014.3 1014.3 0.0
31/02:00pm 27.4 25.7 17.3 54 6.3 ENE 22 32 12 17 1014.5 1014.5 0.0
31/01:30pm 27.3 25.8 17.8 56 6.0 ENE 22 32 12 17 1014.8 1014.8 0.0
31/01:00pm 26.9 25.3 17.4 56 6.0 NE 22 32 12 17 1015.1 1015.1 0.0
31/12:30pm 26.8 25.7 17.8 57 5.7 NE 20 28 11 15 1015.6 1015.6 0.0
31/12:00pm 27.1 26.5 18.4 59 5.5 ENE 19 26 10 14 1015.9 1015.9 0.0
31/11:30am 27.2 26.4 18.5 59 5.6 NE 20 32 11 17 1016.0 1016.0 0.0
31/11:00am 27.0 26.3 18.6 60 5.4 NE 20 26 11 14 1016.3 1016.3 0.0
31/10:30am 27.5 26.9 18.5 58 5.8 NNE 19 24 10 13 1016.5 1016.5 0.0
31/10:00am 27.0 26.1 17.8 57 5.8 NE 19 24 10 13 1016.8 1016.8 0.0
31/09:30am 25.9 25.3 17.5 59 5.3 ENE 17 22 9 12 1016.9 1016.9 0.0
31/09:00am 26.3 25.1 17.1 57 5.7 E 19 22 10 12 1017.0 1017.0 0.0
31/08:30am 25.2 26.0 18.2 65 4.4 NE 11 20 6 11 1017.1 1017.1 0.0
31/08:00am 25.7 26.4 17.9 62 4.9 NE 11 19 6 10 1017.0 1017.0 0.0
31/07:30am 24.5 25.5 17.7 66 4.3 NNE 9 17 5 9 1016.8 1016.8 0.0
31/07:21am 25.1 26.9 19.5 71 3.6 ENE 9 13 5 7 1016.7 1016.7 0.0
31/07:01am 24.4 27.5 19.5 74 3.1 ENE 2 9 1 5 1016.6 1016.6 0.0
31/07:00am 24.5 27.6 19.6 74 3.1 E 2 9 1 5 1016.6 1016.6 0.0
31/06:30am 23.0 25.4 19.6 81 2.2 S 6 7 3 4 1016.4 1016.4 0.0
31/06:00am 21.3 24.6 19.0 87 1.4 CALM 0 0 0 0 1016.0 1016.0 0.0
31/05:30am 20.5 22.1 18.3 87 1.4 SSW 7 9 4 5 1015.8 1015.8 0.0
31/05:00am 21.0 22.9 18.6 86 1.5 WSW 6 7 3 4 1015.4 1015.4 0.0
31/04:30am 21.4 23.3 18.6 84 1.8 S 6 9 3 5 1015.1 1015.1 0.0
31/04:00am 22.4 24.4 19.2 82 2.0 NNE 7 9 4 5 1014.8 1014.8 0.0
31/03:30am 22.5 24.6 19.3 82 2.0 N 7 9 4 5 1014.7 1014.7 0.0
31/03:00am 22.6 24.7 19.4 82 2.0 N 7 11 4 6 1014.5 1014.5 0.0
31/02:30am 22.7 24.5 19.5 82 2.0 NNE 9 11 5 6 1014.7 1014.7 0.0
31/02:00am 22.7 24.4 19.3 81 2.2 N 9 13 5 7 1014.9 1014.9 0.0
31/01:30am 22.8 24.5 19.4 81 2.2 N 9 15 5 8 1015.1 1015.1 0.0
31/01:00am 23.1 24.6 19.7 81 2.2 NNE 11 15 6 8 1014.9 1014.9 0.0
31/12:30am 23.0 24.4 19.6 81 2.2 N 11 15 6 8 1015.4 1015.4 0.0
31/12:00am 23.3 24.8 19.7 80 2.3 N 11 15 6 8 1015.8 1015.8 0.0
 
Date/Time
EST
Temp
°C
App
Temp
°C
Dew
Point
Rel
Hum
%
Delta-T
°C
Wind Press
QNH
hPa
Press
MSL
hPa
Rain
since 9 am
mm
Dir
 
Spd
km/h
Gust
km/h
Spd
kts
Gust
kts
30/11:30pm 23.5 25.3 19.6 79 2.5 N 9 13 5 7 1015.9 1015.9 0.0
30/11:00pm 23.5 24.6 19.6 79 2.5 NNE 13 19 7 10 1015.4 1015.4 0.0
30/10:30pm 23.4 25.6 19.5 79 2.5 NNE 7 11 4 6 1016.1 1016.1 0.0
30/10:00pm 23.4 24.8 19.5 79 2.5 NNE 11 15 6 8 1016.1 1016.1 0.0
30/09:30pm 23.5 24.7 19.8 80 2.4 NNE 13 15 7 8 1015.6 1015.6 0.0
30/09:00pm 23.6 24.6 19.5 78 2.6 NNE 13 17 7 9 1015.5 1015.5 0.0
30/08:30pm 23.7 25.0 19.4 77 2.8 N 11 15 6 8 1015.6 1015.6 0.0
30/08:00pm 23.8 24.7 19.3 76 2.9 N 13 17 7 9 1015.6 1015.6 0.0
30/07:30pm 23.9 25.2 19.4 76 2.9 N 11 15 6 8 1015.6 1015.6 0.0
30/07:00pm 23.9 24.2 19.6 77 2.8 NNE 17 24 9 13 1014.9 1014.9 0.0
30/06:30pm 24.2 25.1 19.3 74 3.1 NNE 13 17 7 9 1014.7 1014.7 0.0
30/06:00pm 24.6 24.7 18.3 68 4.0 NE 15 19 8 10 1014.1 1014.1 0.0
30/05:30pm 24.8 24.0 18.5 68 4.0 NE 20 26 11 14 1013.5 1013.5 0.0
30/05:00pm 25.6 25.5 18.8 66 4.3 NE 17 22 9 12 1013.6 1013.6 0.0
30/04:30pm 26.0 25.9 18.7 64 4.7 NE 17 24 9 13 1013.3 1013.3 0.0
30/04:00pm 26.8 26.0 18.4 60 5.3 NE 20 26 11 14 1013.1 1013.1 0.0
30/03:30pm 26.7 25.6 18.6 61 5.2 NE 22 28 12 15 1013.2 1013.2 0.0
30/03:00pm 26.5 25.2 17.3 57 5.8 NE 20 28 11 15 1013.3 1013.3 0.0
30/02:30pm 26.8 25.8 18.9 62 5.1 NE 22 30 12 16 1013.4 1013.4 0.0
30/02:00pm 27.6 26.1 18.6 58 5.8 NNE 24 32 13 17 1013.5 1013.5 0.0
30/01:30pm 28.5 27.9 19.7 59 5.7 NE 22 32 12 17 1013.8 1013.8 0.0
30/01:00pm 27.8 26.9 19.1 59 5.6 ENE 22 32 12 17 1014.2 1014.2 0.0
30/12:30pm 28.2 27.2 18.9 57 6.0 ENE 22 32 12 17 1014.5 1014.5 0.0
30/12:00pm 27.6 26.5 18.6 58 5.8 ENE 22 30 12 16 1015.0 1015.0 0.0
30/11:30am 27.7 27.0 18.7 58 5.8 ENE 20 30 11 16 1015.5 1015.5 0.0
30/11:00am 28.3 28.2 19.5 59 5.7 ENE 19 30 10 16 1015.9 1015.9 0.0
30/10:30am 27.0 26.2 18.0 58 5.7 ENE 19 28 10 15 1016.1 1016.1 0.0
30/10:00am 27.9 27.9 18.0 55 6.3 NE 15 22 8 12 1016.4 1016.4 0.0
30/09:30am 26.8 27.1 17.0 55 6.1 NE 11 17 6 9 1016.7 1016.7 0.0
30/09:00am 26.7 27.6 18.3 60 5.3 NE 11 19 6 10 1017.1 1017.1 0.0
30/08:30am 26.0 27.1 17.9 61 5.1 NE 9 17 5 9 1017.2 1017.2 0.0
30/08:01am 25.7 26.6 17.6 61 5.1 N 9 15 5 8 1017.4 1017.4 0.0
30/08:00am 25.7 26.5 17.4 60 5.2 N 9 15 5 8 1017.4 1017.4 0.0
30/07:40am 25.4 26.3 19.3 69 3.9 NE 13 17 7 9 1017.2 1017.2 0.0
30/07:30am 24.7 25.5 19.1 71 3.6 NE 13 17 7 9 1017.3 1017.3 0.0
30/07:10am 24.0 25.5 19.7 77 2.8 N 11 13 6 7 1017.1 1017.1 0.0
30/07:00am 23.9 25.4 19.8 78 2.6 N 11 15 6 8 1017.1 1017.1 0.0
30/06:37am 23.7 25.7 20.0 80 2.4 NNW 9 13 5 7 1016.8 1016.8 0.0
30/06:30am 23.8 26.0 19.5 77 2.8 NNE 7 11 4 6 1016.7 1016.7 0.0
30/06:00am 22.7 25.7 20.0 85 1.7 ESE 4 7 2 4 1016.3 1016.3 0.0
30/05:30am 22.7 25.1 20.0 85 1.7 SE 7 7 4 4 1015.8 1015.8 0.0
30/05:00am 22.7 25.1 20.0 85 1.7 ESE 7 7 4 4 1015.5 1015.5 0.0
30/04:30am 22.4 24.9 19.8 85 1.7 SE 6 7 3 4 1015.2 1015.2 0.0
30/04:00am 22.8 25.2 20.0 84 1.8 E 7 11 4 6 1014.8 1014.8 0.0
30/03:30am 23.0 25.4 20.1 84 1.9 E 7 9 4 5 1014.5 1014.5 0.0
30/03:00am 23.0 25.4 20.1 84 1.9 ESE 7 9 4 5 1014.4 1014.4 0.0
30/02:30am 23.0 24.7 20.1 84 1.9 E 11 13 6 7 1014.3 1014.3 0.0
30/02:00am 23.2 25.4 20.3 84 1.9 E 9 11 5 6 1014.4 1014.4 0.0
30/01:30am 23.3 24.6 20.2 83 2.0 ENE 13 15 7 8 1014.5 1014.5 0.0
30/01:00am 23.3 25.1 20.4 84 1.9 ENE 11 15 6 8 1014.7 1014.7 0.0
30/12:30am 23.4 24.9 20.5 84 1.9 ENE 13 17 7 9 1014.8 1014.8 0.0
30/12:00am 23.5 24.9 20.4 83 2.0 ENE 13 19 7 10 1015.0 1015.0 0.0
 
Date/Time
EST
Temp
°C
App
Temp
°C
Dew
Point
Rel
Hum
%
Delta-T
°C
Wind Press
QNH
hPa
Press
MSL
hPa
Rain
since 9 am
mm
Dir
 
Spd
km/h
Gust
km/h
Spd
kts
Gust
kts
29/11:30pm 23.7 25.1 20.4 82 2.1 E 13 17 7 9 1015.1 1015.1 0.0
29/11:00pm 23.9 25.4 20.6 82 2.1 E 13 19 7 10 1015.4 1015.4 0.0
29/10:30pm 24.0 25.5 20.5 81 2.3 ENE 13 17 7 9 1015.3 1015.3 0.0
29/10:00pm 24.1 26.2 20.2 79 2.5 ENE 9 13 5 7 1015.3 1015.3 0.0
29/09:30pm 24.0 25.3 20.1 79 2.5 ENE 13 15 7 8 1015.1 1015.1 0.0
29/09:25pm 24.0 25.3 20.1 79 2.5 ENE 13 15 7 8 1015.1 1015.1 0.0
29/09:00pm 24.2 26.1 20.5 80 2.4 ENE 11 13 6 7 1015.0 1015.0 0.0
29/08:31pm 24.3 26.5 20.4 79 2.5 ENE 9 13 5 7 1014.7 1014.7 0.0
29/08:30pm 24.3 26.5 20.4 79 2.5 ENE 9 13 5 7 1014.7 1014.7 0.0
29/08:00pm 24.6 27.0 20.1 76 2.9 N 7 11 4 6 1014.3 1014.3 0.0
29/07:30pm 24.8 27.2 20.1 75 3.0 N 7 11 4 6 1013.8 1013.8 0.0
29/07:00pm 25.3 26.9 19.9 72 3.5 N 11 15 6 8 1013.2 1013.2 0.0
29/06:30pm 26.1 27.5 19.5 67 4.3 NNE 11 17 6 9 1012.8 1012.8 0.0
29/06:00pm 26.3 27.7 20.4 70 3.9 NE 13 17 7 9 1012.4 1012.4 0.0
29/05:30pm 27.5 28.3 19.0 59 5.5 NNE 13 19 7 10 1012.1 1012.1 0.0
29/05:00pm 27.8 27.9 19.1 59 5.6 NE 17 22 9 12 1011.9 1011.9 0.0
29/04:30pm 29.1 28.8 19.1 54 6.5 NNE 19 24 10 13 1011.5 1011.5 0.0
29/04:00pm 29.3 29.0 19.6 56 6.3 NNE 20 26 11 14 1011.2 1011.2 0.0
29/03:30pm 29.5 29.3 19.8 56 6.4 NE 20 26 11 14 1011.3 1011.3 0.0
29/03:00pm 29.5 28.3 19.2 54 6.7 NE 24 32 13 17 1011.3 1011.3 0.0
29/02:30pm 31.0 30.8 19.7 51 7.4 NE 20 28 11 15 1011.4 1011.4 0.0
29/02:00pm 31.0 30.8 19.7 51 7.4 NE 20 28 11 15 1011.5 1011.5 0.0

Other Formats:

Comma delimited format used in spreadsheet applications
http://www.bom.gov.au/fwo/IDQ60801/IDQ60801.94381.axf

JavaScript Object Notation format (JSON) in row-major order
http://www.bom.gov.au/fwo/IDQ60801/IDQ60801.94381.json